Time;durP1;ratioP1;P1;durP2;ratioP2;P2;SDS_P1;SDS_P2;PMS_P1;PMS_P2;Temp;Humidity;BMP_temperature;BMP_pressure;BME280_temperature;BME280_humidity;BME280_pressure;Samples;Min_cycle;Max_cycle;Signal;HPM_P1;HPM_P2
2023/09/04 00:00:55;;;;;;;11.77;5.50;;;26.20;64.00;;;;;;5095985;28;20028;-77
2023/09/04 00:03:22;;;;;;;12.32;5.15;;;26.20;64.00;;;;;;5105401;28;20549;-77
2023/09/04 00:05:48;;;;;;;11.95;4.85;;;26.10;64.10;;;;;;5094388;22;20054;-78
2023/09/04 00:08:14;;;;;;;12.30;5.45;;;26.10;64.00;;;;;;5054735;28;20124;-77
2023/09/04 00:10:40;;;;;;;10.35;5.18;;;26.20;64.00;;;;;;5072698;28;20387;-76
2023/09/04 00:13:06;;;;;;;9.73;5.05;;;26.10;64.70;;;;;;5072525;28;20111;-76
2023/09/04 00:15:35;;;;;;;9.63;4.95;;;26.10;64.30;;;;;;5072806;28;20060;-77
2023/09/04 00:18:03;;;;;;;13.15;5.30;;;26.20;64.30;;;;;;5072674;28;20399;-77
2023/09/04 00:20:29;;;;;;;9.52;5.53;;;26.10;64.20;;;;;;5054628;28;20032;-76
2023/09/04 00:22:55;;;;;;;8.45;4.15;;;26.10;64.20;;;;;;5072480;28;20036;-77
2023/09/04 00:25:22;;;;;;;14.25;5.60;;;26.10;64.30;;;;;;5072526;28;20037;-77
2023/09/04 00:27:48;;;;;;;10.20;5.00;;;26.10;64.40;;;;;;5072395;28;20028;-75
2023/09/04 00:30:14;;;;;;;10.27;4.80;;;26.10;64.50;;;;;;5070857;28;20492;-75
2023/09/04 00:32:40;;;;;;;10.35;5.00;;;26.00;64.70;;;;;;5054328;28;20064;-76
2023/09/04 00:35:07;;;;;;;8.75;4.78;;;25.90;64.80;;;;;;5070785;28;20064;-76
2023/09/04 00:37:33;;;;;;;9.90;4.70;;;25.90;64.90;;;;;;5072301;28;20028;-76
2023/09/04 00:39:59;;;;;;;10.20;4.25;;;25.90;65.10;;;;;;5054311;28;20047;-77
2023/09/04 00:42:29;;;;;;;10.13;4.38;;;25.80;65.20;;;;;;5072405;28;20122;-76
2023/09/04 00:44:58;;;;;;;8.07;4.22;;;25.80;65.40;;;;;;5072124;28;20029;-76
2023/09/04 00:47:24;;;;;;;10.20;4.70;;;25.80;65.40;;;;;;5074093;28;20060;-75
2023/09/04 00:49:52;;;;;;;10.15;4.47;;;25.70;65.50;;;;;;5073060;28;20064;-75
2023/09/04 00:52:18;;;;;;;7.47;4.38;;;25.70;65.60;;;;;;5054272;28;20447;-75
2023/09/04 00:54:45;;;;;;;8.85;4.60;;;25.70;65.50;;;;;;5072378;28;20029;-75
2023/09/04 00:57:12;;;;;;;9.38;4.15;;;25.70;65.30;;;;;;5072017;28;20500;-76
2023/09/04 00:59:40;;;;;;;11.73;4.32;;;25.70;65.40;;;;;;5071994;28;20047;-77
2023/09/04 01:02:06;;;;;;;8.73;4.53;;;25.70;65.40;;;;;;5072170;28;20480;-76
2023/09/04 01:04:32;;;;;;;10.23;4.90;;;25.70;65.40;;;;;;5075559;28;20036;-77
2023/09/04 01:06:58;;;;;;;7.60;4.53;;;25.70;65.30;;;;;;5075477;28;20480;-76
2023/09/04 01:09:25;;;;;;;8.20;4.55;;;25.70;65.30;;;;;;5074464;28;20039;-76
2023/09/04 01:12:14;;;;;;;9.48;4.43;;;25.70;65.40;;;;;;5075873;28;20111;-76
2023/09/04 01:14:45;;;;;;;9.18;4.60;;;25.60;65.50;;;;;;5089690;28;20039;-76
2023/09/04 01:17:12;;;;;;;10.07;4.57;;;25.60;65.70;;;;;;5105109;28;20024;-75
2023/09/04 01:19:42;;;;;;;9.52;5.05;;;25.60;65.90;;;;;;5096336;28;20377;-76
2023/09/04 01:22:09;;;;;;;8.43;4.60;;;25.60;65.90;;;;;;5077699;28;20064;-76
2023/09/04 01:24:35;;;;;;;9.60;4.80;;;25.50;66.30;;;;;;5077518;28;20093;-76
2023/09/04 01:27:21;;;;;;;13.88;5.25;;;25.50;66.50;;;;;;5095518;28;20032;-75
2023/09/04 01:30:01;;;;;;;8.43;4.35;;;25.40;66.60;;;;;;5077210;28;20032;-77
2023/09/04 01:32:40;;;;;;;8.52;4.60;;;25.30;66.10;;;;;;5095735;28;20063;-75
2023/09/04 01:35:09;;;;;;;7.60;4.28;;;25.30;66.60;;;;;;5095222;28;20036;-73
2023/09/04 01:37:36;;;;;;;11.35;4.43;;;25.30;66.60;;;;;;5095359;28;20020;-76
2023/09/04 01:40:05;;;;;;;10.18;4.63;;;25.30;66.60;;;;;;5076945;28;20395;-76
2023/09/04 01:42:31;;;;;;;8.98;4.50;;;25.30;66.70;;;;;;5095173;28;20399;-76
2023/09/04 01:45:02;;;;;;;12.18;4.60;;;25.30;66.70;;;;;;5100100;28;20036;-76
2023/09/04 01:47:30;;;;;;;9.07;4.40;;;25.30;66.80;;;;;;5096121;28;20024;-77
2023/09/04 01:49:56;;;;;;;10.40;4.55;;;25.20;66.70;;;;;;5077046;28;20032;-75
2023/09/04 01:52:22;;;;;;;8.73;4.10;;;25.10;66.70;;;;;;5076772;28;20379;-75
2023/09/04 01:54:48;;;;;;;9.80;4.25;;;25.10;66.80;;;;;;5094961;28;20044;-75
2023/09/04 01:57:14;;;;;;;8.07;3.97;;;25.00;66.80;;;;;;5094612;28;20098;-74
2023/09/04 01:59:40;;;;;;;8.73;4.25;;;25.00;67.00;;;;;;5076937;28;20047;-76
2023/09/04 02:02:05;;;;;;;12.10;4.47;;;25.00;66.90;;;;;;5094896;28;20104;-76
2023/09/04 02:04:32;;;;;;;9.35;4.32;;;25.00;66.80;;;;;;5094844;28;20402;-76
2023/09/04 02:06:58;;;;;;;8.18;4.57;;;25.00;66.70;;;;;;5076184;28;20071;-76
2023/09/04 02:09:25;;;;;;;8.93;4.28;;;25.00;66.80;;;;;;5094573;28;20051;-75
2023/09/04 02:11:50;;;;;;;11.05;4.50;;;25.00;66.80;;;;;;5094345;28;20094;-76
2023/09/04 02:14:16;;;;;;;9.50;4.57;;;25.00;66.80;;;;;;5075997;28;20115;-75
2023/09/04 02:16:42;;;;;;;9.30;4.70;;;25.00;66.90;;;;;;5094672;28;20040;-76
2023/09/04 02:19:09;;;;;;;8.52;3.58;;;24.90;66.90;;;;;;5094141;28;20119;-76
2023/09/04 02:21:34;;;;;;;11.23;4.10;;;24.90;66.60;;;;;;5094441;28;20044;-75
2023/09/04 02:24:01;;;;;;;10.10;4.30;;;24.90;66.70;;;;;;5094280;28;20036;-75
2023/09/04 02:26:27;;;;;;;8.65;4.50;;;24.90;66.70;;;;;;5075871;28;20399;-75
2023/09/04 02:28:53;;;;;;;9.75;4.50;;;24.80;66.70;;;;;;5094252;28;20032;-75
2023/09/04 02:31:19;;;;;;;6.50;3.67;;;24.80;66.70;;;;;;5094216;28;20034;-75
2023/09/04 02:33:45;;;;;;;8.25;3.90;;;24.90;66.60;;;;;;5093550;28;20040;-75
2023/09/04 02:36:10;;;;;;;8.50;3.83;;;24.90;66.50;;;;;;5075999;28;20505;-75
2023/09/04 02:38:36;;;;;;;8.68;3.65;;;24.90;66.20;;;;;;5094141;28;20349;-77
2023/09/04 02:41:02;;;;;;;9.82;4.20;;;24.90;66.30;;;;;;5095528;28;20031;-75
2023/09/04 02:43:28;;;;;;;8.55;3.80;;;25.00;66.30;;;;;;5080440;28;20487;-75
2023/09/04 02:45:57;;;;;;;6.90;3.63;;;24.90;66.20;;;;;;5093857;28;20036;-76
2023/09/04 02:48:23;;;;;;;6.88;4.05;;;24.90;66.00;;;;;;5093494;28;20046;-75
2023/09/04 02:50:48;;;;;;;8.63;4.13;;;24.90;66.10;;;;;;5075374;28;20032;-76
2023/09/04 02:53:14;;;;;;;10.25;3.92;;;24.90;66.30;;;;;;5093836;28;20514;-75
2023/09/04 02:55:45;;;;;;;6.88;4.10;;;24.90;66.30;;;;;;5093696;28;20030;-75
2023/09/04 02:58:11;;;;;;;8.88;3.78;;;24.80;66.30;;;;;;5075502;28;20529;-76
2023/09/04 03:00:40;;;;;;;8.07;3.70;;;24.80;66.40;;;;;;5093736;28;20103;-77
2023/09/04 03:03:07;;;;;;;7.88;3.47;;;24.80;66.30;;;;;;5075250;28;20090;-77
2023/09/04 03:05:33;;;;;;;6.55;3.65;;;24.80;66.20;;;;;;5093544;28;20125;-75
2023/09/04 03:07:58;;;;;;;6.40;3.20;;;24.70;65.80;;;;;;5075393;28;20105;-76
2023/09/04 03:10:24;;;;;;;6.43;3.50;;;24.60;65.90;;;;;;5075137;28;20040;-76
2023/09/04 03:12:50;;;;;;;5.97;3.22;;;24.70;65.90;;;;;;5098564;28;20012;-76
2023/09/04 03:15:16;;;;;;;6.00;3.28;;;24.60;65.70;;;;;;5115610;28;20039;-76
2023/09/04 03:17:42;;;;;;;8.00;3.38;;;24.60;65.70;;;;;;5096215;28;20050;-77
2023/09/04 03:20:10;;;;;;;7.50;3.53;;;24.60;65.60;;;;;;5075508;28;20094;-76
2023/09/04 03:22:35;;;;;;;7.03;3.38;;;24.60;66.20;;;;;;5075061;28;20035;-76
2023/09/04 03:25:01;;;;;;;7.35;3.50;;;24.60;65.50;;;;;;5093099;28;20040;-75
2023/09/04 03:27:27;;;;;;;7.93;3.42;;;24.60;65.20;;;;;;5092992;28;20508;-75
2023/09/04 03:29:54;;;;;;;6.90;3.38;;;24.50;65.10;;;;;;5093203;28;20062;-75
2023/09/04 03:32:20;;;;;;;6.25;3.05;;;24.50;65.10;;;;;;5093544;28;20388;-75
2023/09/04 03:34:46;;;;;;;6.95;3.17;;;24.50;65.00;;;;;;5093157;28;20043;-76
2023/09/04 03:37:11;;;;;;;7.93;3.90;;;24.50;64.90;;;;;;5074966;28;20035;-76
2023/09/04 03:39:38;;;;;;;5.85;3.28;;;24.60;64.90;;;;;;5079813;28;20040;-77
2023/09/04 03:42:05;;;;;;;6.68;3.70;;;24.60;64.60;;;;;;5093426;28;20029;-76
2023/09/04 03:44:31;;;;;;;8.63;3.42;;;24.60;64.50;;;;;;5092967;28;20036;-75
2023/09/04 03:46:57;;;;;;;9.13;3.78;;;24.60;64.30;;;;;;5093095;28;20118;-76
2023/09/04 03:49:23;;;;;;;9.27;3.55;;;24.60;64.40;;;;;;5093270;28;20103;-77
2023/09/04 03:51:48;;;;;;;7.57;3.42;;;24.60;64.30;;;;;;5074653;28;20043;-76
2023/09/04 03:54:14;;;;;;;6.45;3.50;;;24.50;63.90;;;;;;5093293;28;20032;-76
2023/09/04 03:56:40;;;;;;;11.00;3.42;;;24.50;64.00;;;;;;5093029;28;20111;-77
2023/09/04 03:59:06;;;;;;;8.23;4.07;;;24.60;64.20;;;;;;5093001;28;20044;-76
2023/09/04 04:01:33;;;;;;;11.95;4.22;;;24.50;64.00;;;;;;5074960;28;20036;-75
2023/09/04 04:04:01;;;;;;;10.70;3.83;;;24.60;63.70;;;;;;5092992;28;20484;-75
2023/09/04 04:06:27;;;;;;;9.70;3.50;;;24.70;64.00;;;;;;5074618;28;20131;-76
2023/09/04 04:08:55;;;;;;;9.80;3.85;;;24.70;63.70;;;;;;5074742;28;20099;-76
2023/09/04 04:11:22;;;;;;;7.63;4.03;;;24.70;63.40;;;;;;5093177;28;20110;-75
2023/09/04 04:13:48;;;;;;;8.27;3.10;;;24.70;63.90;;;;;;5092663;28;20071;-76
2023/09/04 04:16:14;;;;;;;8.23;3.30;;;24.70;63.60;;;;;;5092580;28;20032;-76
2023/09/04 04:18:40;;;;;;;15.23;4.65;;;24.70;63.20;;;;;;5092533;28;20119;-75
2023/09/04 04:21:06;;;;;;;6.78;3.42;;;24.60;63.30;;;;;;5074382;28;20124;-75
2023/09/04 04:23:33;;;;;;;9.38;3.15;;;24.70;63.00;;;;;;5074491;28;20035;-76
2023/09/04 04:25:59;;;;;;;7.88;3.05;;;24.70;63.30;;;;;;5092518;28;20111;-76
2023/09/04 04:28:25;;;;;;;12.70;3.92;;;24.60;63.30;;;;;;5092234;28;20103;-75
2023/09/04 04:30:51;;;;;;;7.80;3.45;;;24.60;63.20;;;;;;5092515;28;20406;-77
2023/09/04 04:33:17;;;;;;;10.05;3.72;;;24.60;63.20;;;;;;5092514;28;20032;-76
2023/09/04 04:35:43;;;;;;;7.63;3.22;;;24.60;63.30;;;;;;5095545;28;20082;-76
2023/09/04 04:38:09;;;;;;;6.38;3.28;;;24.60;63.10;;;;;;5098759;28;20043;-76
2023/09/04 04:40:38;;;;;;;5.43;3.20;;;24.60;63.10;;;;;;5097512;28;20032;-76
2023/09/04 04:43:04;;;;;;;7.45;3.65;;;24.50;62.80;;;;;;5097130;28;20044;-77
2023/09/04 04:45:30;;;;;;;8.85;3.38;;;24.50;62.80;;;;;;5096721;28;20039;-77
2023/09/04 04:47:56;;;;;;;9.10;3.70;;;24.50;62.90;;;;;;5078033;28;20380;-77
2023/09/04 04:50:22;;;;;;;10.43;3.47;;;24.50;62.80;;;;;;5096575;28;20063;-76
2023/09/04 04:52:48;;;;;;;6.45;3.10;;;24.50;62.70;;;;;;5096548;28;20094;-75
2023/09/04 04:55:14;;;;;;;7.22;3.08;;;24.50;62.50;;;;;;5096261;28;20024;-77
2023/09/04 04:57:40;;;;;;;6.07;3.40;;;24.50;62.30;;;;;;5095833;28;20089;-77
2023/09/04 05:00:07;;;;;;;7.60;3.35;;;24.50;62.50;;;;;;5077443;28;20032;-77
2023/09/04 05:02:36;;;;;;;8.02;3.22;;;24.50;62.20;;;;;;5096081;28;20085;-75
2023/09/04 05:05:03;;;;;;;6.90;3.20;;;24.50;62.10;;;;;;5077623;28;20415;-76
2023/09/04 05:07:29;;;;;;;6.95;3.05;;;24.60;62.10;;;;;;5096224;28;20032;-76
2023/09/04 05:09:56;;;;;;;6.20;2.95;;;24.60;61.90;;;;;;5095466;28;20115;-76
2023/09/04 05:12:22;;;;;;;7.25;3.20;;;24.60;62.70;;;;;;5097772;28;20560;-77
2023/09/04 05:14:48;;;;;;;7.25;3.63;;;24.60;61.80;;;;;;5100233;28;20039;-76
2023/09/04 05:17:14;;;;;;;7.80;3.28;;;24.60;61.90;;;;;;5095658;28;20032;-75
2023/09/04 05:19:40;;;;;;;6.63;3.20;;;24.60;61.90;;;;;;5095723;28;20055;-75
2023/09/04 05:22:06;;;;;;;9.05;3.35;;;24.70;62.00;;;;;;5095749;28;20028;-75
2023/09/04 05:24:32;;;;;;;7.05;3.75;;;24.70;61.90;;;;;;5095657;28;20491;-77
2023/09/04 05:26:58;;;;;;;8.40;3.15;;;24.70;61.90;;;;;;5095678;28;20125;-76
2023/09/04 05:29:24;;;;;;;7.50;3.90;;;24.80;61.70;;;;;;5077585;28;20039;-76
2023/09/04 05:31:53;;;;;;;6.57;3.53;;;24.80;61.50;;;;;;5078101;28;20557;-75
2023/09/04 05:34:19;;;;;;;8.75;3.53;;;24.80;61.30;;;;;;5100502;28;20028;-76
2023/09/04 05:36:46;;;;;;;7.03;3.42;;;24.90;61.50;;;;;;5095318;28;20063;-76
2023/09/04 05:39:12;;;;;;;11.18;3.13;;;24.90;61.30;;;;;;5094944;28;20044;-77
2023/09/04 05:41:38;;;;;;;10.75;3.22;;;24.90;61.50;;;;;;5095082;28;20024;-77
2023/09/04 05:44:04;;;;;;;8.88;2.85;;;25.00;61.20;;;;;;5095332;28;20046;-75
2023/09/04 05:46:33;;;;;;;7.03;2.80;;;25.00;61.10;;;;;;5077012;28;20029;-76
2023/09/04 05:48:59;;;;;;;10.15;3.40;;;25.00;61.10;;;;;;5094344;28;20093;-76
2023/09/04 05:51:25;;;;;;;11.07;3.33;;;25.10;60.90;;;;;;5095306;28;20032;-78
2023/09/04 05:53:51;;;;;;;10.50;2.97;;;25.20;60.80;;;;;;5094902;28;20441;-78
2023/09/04 05:56:18;;;;;;;6.47;3.00;;;25.30;60.60;;;;;;5076779;28;20032;-77
2023/09/04 05:58:46;;;;;;;5.32;3.28;;;25.40;60.40;;;;;;5094839;28;20051;-77
2023/09/04 06:01:13;;;;;;;6.55;3.40;;;25.40;60.60;;;;;;5094944;28;20051;-77
2023/09/04 06:03:42;;;;;;;9.55;3.60;;;25.40;60.50;;;;;;5094886;28;20032;-76
2023/09/04 06:06:09;;;;;;;7.22;3.05;;;25.40;60.60;;;;;;5094626;28;20040;-75
2023/09/04 06:08:35;;;;;;;8.27;3.13;;;25.40;60.50;;;;;;5094483;28;20043;-77
2023/09/04 06:11:03;;;;;;;5.00;2.92;;;25.40;60.60;;;;;;5076536;28;20414;-77
2023/09/04 06:13:29;;;;;;;7.15;3.25;;;25.50;60.50;;;;;;5094705;28;20032;-76
2023/09/04 06:15:55;;;;;;;8.65;3.38;;;25.60;60.30;;;;;;5094502;28;20147;-75
2023/09/04 06:18:22;;;;;;;6.60;3.35;;;25.70;59.90;;;;;;5094413;28;20093;-76
2023/09/04 06:20:49;;;;;;;8.13;3.35;;;25.70;59.80;;;;;;5094303;28;20052;-77
2023/09/04 06:23:15;;;;;;;6.07;2.97;;;25.70;59.60;;;;;;5094413;28;20036;-75
2023/09/04 06:25:42;;;;;;;9.32;3.50;;;25.80;59.70;;;;;;5094066;28;20552;-76
2023/09/04 06:28:10;;;;;;;7.82;3.00;;;25.80;59.70;;;;;;5076437;28;20032;-77
2023/09/04 06:30:36;;;;;;;9.90;3.45;;;25.80;59.60;;;;;;5098742;28;20051;-76
2023/09/04 06:33:03;;;;;;;8.52;3.30;;;25.80;59.50;;;;;;5076206;28;20032;-78
2023/09/04 06:35:29;;;;;;;6.47;3.40;;;25.80;59.60;;;;;;5094163;28;20032;-76
2023/09/04 06:37:55;;;;;;;6.22;2.97;;;25.90;59.50;;;;;;5093845;28;20036;-77
2023/09/04 06:40:21;;;;;;;8.93;3.40;;;25.90;59.20;;;;;;5094218;28;20078;-77
2023/09/04 06:42:47;;;;;;;7.95;3.28;;;26.00;59.20;;;;;;5094220;28;20081;-77
2023/09/04 06:45:13;;;;;;;9.45;3.40;;;26.00;59.20;;;;;;5075488;28;20391;-76
2023/09/04 06:47:40;;;;;;;5.95;3.08;;;26.10;59.10;;;;;;5093860;28;20478;-76
2023/09/04 06:50:07;;;;;;;9.15;3.40;;;26.10;58.90;;;;;;5093574;28;20036;-77
2023/09/04 06:52:33;;;;;;;8.63;2.85;;;26.30;58.60;;;;;;5094153;28;20040;-77
2023/09/04 06:54:59;;;;;;;7.05;3.08;;;26.30;58.40;;;;;;5093809;28;20400;-76
2023/09/04 06:57:25;;;;;;;8.13;3.22;;;26.40;58.90;;;;;;5093564;28;20079;-76
2023/09/04 06:59:52;;;;;;;9.73;2.90;;;26.50;58.10;;;;;;5093431;28;20047;-76
2023/09/04 07:02:19;;;;;;;14.30;3.63;;;26.60;58.10;;;;;;5093870;28;20082;-76
2023/09/04 07:04:45;;;;;;;7.05;2.75;;;26.80;57.50;;;;;;5093623;28;20484;-77
2023/09/04 07:07:11;;;;;;;9.00;2.88;;;26.80;57.20;;;;;;5075309;28;20040;-75
2023/09/04 07:09:37;;;;;;;9.85;2.90;;;27.00;57.20;;;;;;5093726;28;20032;-76
2023/09/04 07:12:05;;;;;;;6.10;2.67;;;27.10;56.90;;;;;;5077463;28;20029;-78
2023/09/04 07:14:32;;;;;;;9.10;2.83;;;27.30;56.70;;;;;;5081930;28;20035;-76
2023/09/04 07:16:58;;;;;;;8.80;2.70;;;27.40;56.40;;;;;;5078611;28;20036;-76
2023/09/04 07:19:24;;;;;;;12.73;3.40;;;27.50;56.00;;;;;;5093538;28;20101;-77
2023/09/04 07:21:50;;;;;;;7.00;2.90;;;27.60;56.00;;;;;;5093510;28;20044;-77
2023/09/04 07:24:16;;;;;;;4.97;2.63;;;27.70;55.70;;;;;;5094031;28;20032;-77
2023/09/04 07:26:42;;;;;;;4.47;2.55;;;27.80;55.40;;;;;;5100932;28;20028;-77
2023/09/04 07:29:08;;;;;;;6.50;2.72;;;28.00;55.10;;;;;;5093610;28;20032;-76
2023/09/04 07:31:34;;;;;;;8.38;3.03;;;28.10;55.00;;;;;;5075408;28;20062;-76
2023/09/04 07:34:00;;;;;;;7.40;3.05;;;28.10;54.70;;;;;;5075105;28;20372;-75
2023/09/04 07:36:27;;;;;;;7.88;2.88;;;28.20;54.60;;;;;;5093463;28;20036;-75
2023/09/04 07:38:52;;;;;;;6.38;2.88;;;28.30;54.50;;;;;;5092935;28;20044;-77
2023/09/04 07:41:18;;;;;;;5.82;2.75;;;28.20;54.20;;;;;;5093312;28;20028;-77
2023/09/04 07:43:44;;;;;;;10.57;3.10;;;28.30;54.40;;;;;;5092995;28;20085;-76
2023/09/04 07:46:10;;;;;;;9.80;3.05;;;28.40;54.10;;;;;;5092905;28;20428;-76
2023/09/04 07:48:35;;;;;;;8.20;2.90;;;28.50;54.00;;;;;;5092867;28;20053;-77
2023/09/04 07:51:04;;;;;;;6.65;2.97;;;28.50;53.60;;;;;;5092800;28;20119;-78
2023/09/04 07:53:29;;;;;;;5.53;2.90;;;28.60;53.10;;;;;;5092983;28;20115;-77
2023/09/04 07:55:55;;;;;;;6.32;2.83;;;28.70;52.60;;;;;;5092860;28;20115;-76
2023/09/04 07:58:21;;;;;;;6.18;2.83;;;28.60;52.20;;;;;;5092616;28;20117;-77
2023/09/04 08:00:50;;;;;;;7.65;3.10;;;28.60;52.20;;;;;;5092854;28;20032;-76
2023/09/04 08:03:16;;;;;;;7.45;2.60;;;28.70;52.70;;;;;;5092694;28;20032;-76
2023/09/04 08:05:42;;;;;;;7.45;2.63;;;28.70;52.40;;;;;;5092790;28;20407;-77
2023/09/04 08:08:11;;;;;;;7.18;2.97;;;28.70;52.10;;;;;;5074681;28;20077;-77
2023/09/04 08:10:43;;;;;;;8.75;2.53;;;28.70;52.00;;;;;;5074241;28;20395;-76
2023/09/04 08:13:17;;;;;;;4.65;2.20;;;28.60;51.60;;;;;;5073814;28;20079;-75
2023/09/04 08:15:44;;;;;;;9.73;4.30;;;28.50;51.40;;;;;;5092595;28;20028;-76
2023/09/04 08:18:10;;;;;;;4.85;2.47;;;28.50;51.60;;;;;;5092639;28;20101;-75
2023/09/04 08:20:36;;;;;;;10.25;2.55;;;28.50;51.40;;;;;;5094560;28;20032;-78
2023/09/04 08:23:03;;;;;;;6.05;2.50;;;28.50;51.50;;;;;;5080772;28;20028;-76
2023/09/04 08:25:29;;;;;;;7.55;2.40;;;28.50;51.40;;;;;;5092597;28;20391;-76
2023/09/04 08:27:55;;;;;;;5.55;2.50;;;28.50;51.30;;;;;;5092331;28;20026;-76
2023/09/04 08:30:21;;;;;;;5.50;2.80;;;28.50;51.30;;;;;;5092497;28;20432;-76
2023/09/04 08:32:47;;;;;;;7.28;2.85;;;28.50;51.20;;;;;;5074160;28;20039;-75
2023/09/04 08:35:12;;;;;;;7.53;2.92;;;28.40;50.90;;;;;;5073887;28;20080;-76
2023/09/04 08:37:39;;;;;;;7.63;2.30;;;28.40;51.00;;;;;;5092003;28;20028;-77
2023/09/04 08:40:06;;;;;;;5.25;2.28;;;28.50;51.00;;;;;;5092165;28;20128;-77
2023/09/04 08:42:32;;;;;;;4.32;2.22;;;28.50;50.80;;;;;;5092201;28;20029;-75
2023/09/04 08:44:58;;;;;;;7.88;2.30;;;28.50;50.50;;;;;;5092118;28;20066;-77
2023/09/04 08:47:24;;;;;;;6.15;2.85;;;28.50;50.40;;;;;;5073975;28;20032;-76
2023/09/04 08:49:53;;;;;;;4.65;2.22;;;28.50;50.50;;;;;;5092486;28;20032;-76
2023/09/04 08:52:19;;;;;;;4.68;2.30;;;28.60;50.70;;;;;;5091952;28;20083;-77
2023/09/04 08:54:46;;;;;;;5.38;2.47;;;28.60;50.60;;;;;;5092180;28;20040;-75
2023/09/04 08:57:12;;;;;;;9.73;2.60;;;28.60;50.90;;;;;;5092121;28;20035;-76
2023/09/04 08:59:38;;;;;;;7.53;2.20;;;28.70;50.30;;;;;;5092164;28;20040;-77
2023/09/04 09:02:04;;;;;;;4.43;2.35;;;28.70;50.50;;;;;;5092149;28;20035;-75
2023/09/04 09:04:32;;;;;;;5.90;2.17;;;28.80;50.20;;;;;;5073932;28;20040;-77
2023/09/04 09:06:59;;;;;;;5.10;2.20;;;28.80;50.30;;;;;;5073901;28;20123;-77
2023/09/04 09:09:27;;;;;;;6.95;2.50;;;28.80;50.20;;;;;;5074054;28;20032;-78
2023/09/04 09:11:55;;;;;;;5.28;2.08;;;28.80;50.30;;;;;;5092086;28;20111;-75
2023/09/04 09:14:26;;;;;;;4.65;2.20;;;28.80;49.50;;;;;;5092611;28;20071;-78
2023/09/04 09:17:14;;;;;;;5.55;2.38;;;28.80;50.00;;;;;;5094502;28;20115;-76
2023/09/04 09:19:41;;;;;;;5.68;2.30;;;28.90;49.50;;;;;;5093987;28;20044;-76
2023/09/04 09:22:17;;;;;;;4.88;2.38;;;28.90;49.30;;;;;;5074004;28;20082;-77
2023/09/04 09:25:01;;;;;;;8.25;2.30;;;28.90;49.10;;;;;;5094656;28;20036;-77
2023/09/04 09:27:30;;;;;;;4.78;2.03;;;28.90;48.40;;;;;;5095724;28;20135;-76
2023/09/04 09:29:59;;;;;;;5.57;2.13;;;28.90;48.80;;;;;;5095533;28;20115;-76
2023/09/04 09:32:30;;;;;;;4.70;2.10;;;29.00;48.90;;;;;;5095901;28;20080;-77
2023/09/04 09:34:58;;;;;;;4.45;2.00;;;29.10;49.00;;;;;;5095600;28;20399;-76
2023/09/04 09:37:26;;;;;;;5.38;2.10;;;29.10;48.60;;;;;;5095390;28;20032;-77
2023/09/04 09:39:52;;;;;;;6.45;2.03;;;29.10;48.90;;;;;;5095251;28;20123;-76
2023/09/04 09:42:20;;;;;;;5.53;2.30;;;29.10;48.00;;;;;;5077104;28;20571;-77
2023/09/04 09:44:46;;;;;;;6.50;2.67;;;29.20;47.90;;;;;;5095553;28;20036;-76
2023/09/04 09:47:13;;;;;;;5.15;2.13;;;29.20;48.10;;;;;;5095662;28;20437;-76
2023/09/04 09:49:41;;;;;;;5.18;2.38;;;29.30;48.20;;;;;;5095220;28;20028;-76
2023/09/04 09:52:08;;;;;;;3.90;2.10;;;29.30;47.90;;;;;;5076264;28;20164;-76
2023/09/04 09:54:36;;;;;;;7.95;2.72;;;29.40;47.80;;;;;;5094833;28;20032;-77
2023/09/04 09:57:07;;;;;;;4.88;2.30;;;29.40;46.50;;;;;;5094659;28;20391;-76
2023/09/04 09:59:33;;;;;;;7.53;2.30;;;29.50;47.60;;;;;;5094669;28;20040;-76
2023/09/04 10:02:01;;;;;;;6.35;2.40;;;29.50;47.50;;;;;;5076151;28;20029;-77
2023/09/04 10:04:27;;;;;;;8.88;2.35;;;29.60;47.60;;;;;;5076130;28;20394;-76
2023/09/04 10:06:56;;;;;;;7.15;2.53;;;29.60;47.40;;;;;;5094436;28;20104;-78
2023/09/04 10:09:23;;;;;;;3.63;2.03;;;29.70;47.40;;;;;;5094117;28;20032;-77
2023/09/04 10:12:02;;;;;;;6.82;2.33;;;29.80;47.00;;;;;;5094291;28;20032;-77
2023/09/04 10:14:32;;;;;;;5.93;2.40;;;29.80;47.20;;;;;;5100267;28;20024;-76
2023/09/04 10:17:01;;;;;;;4.57;2.20;;;29.80;47.20;;;;;;5094288;28;20093;-77
2023/09/04 10:19:33;;;;;;;8.27;2.60;;;29.80;47.10;;;;;;5093918;28;20040;-76
2023/09/04 10:22:08;;;;;;;5.32;2.42;;;29.80;47.20;;;;;;5075675;28;20411;-76
2023/09/04 10:24:47;;;;;;;5.80;2.40;;;29.90;47.30;;;;;;5093832;28;20107;-75
2023/09/04 10:27:15;;;;;;;4.53;2.35;;;29.90;47.20;;;;;;5093732;28;20433;-77
2023/09/04 10:29:56;;;;;;;9.10;2.58;;;29.90;47.50;;;;;;5075628;28;20545;-77
2023/09/04 10:32:22;;;;;;;5.32;2.38;;;30.00;47.10;;;;;;5094129;28;20127;-76
2023/09/04 10:34:49;;;;;;;6.85;2.72;;;30.10;47.60;;;;;;5093344;28;20507;-78
2023/09/04 10:37:14;;;;;;;6.30;2.40;;;30.20;47.50;;;;;;5093652;28;20126;-75
2023/09/04 10:39:41;;;;;;;5.15;2.42;;;30.20;47.10;;;;;;5093603;28;20182;-77
2023/09/04 10:42:08;;;;;;;5.60;2.30;;;30.30;47.40;;;;;;5093649;28;20033;-76
2023/09/04 10:44:51;;;;;;;3.75;2.10;;;30.40;47.30;;;;;;5093573;28;20039;-76
2023/09/04 10:47:17;;;;;;;5.68;2.30;;;30.40;47.10;;;;;;5075533;28;20028;-77
2023/09/04 10:49:47;;;;;;;3.83;2.30;;;30.40;47.40;;;;;;5093572;28;20047;-76
2023/09/04 10:52:14;;;;;;;5.07;2.15;;;30.50;45.30;;;;;;5075288;28;20032;-76
2023/09/04 10:54:40;;;;;;;4.53;2.05;;;30.50;46.40;;;;;;5093965;28;20028;-77
2023/09/04 10:57:13;;;;;;;5.97;2.13;;;30.60;46.60;;;;;;5093989;28;20036;-75
2023/09/04 10:59:54;;;;;;;4.45;2.10;;;30.60;45.80;;;;;;5075250;28;20072;-77
2023/09/04 11:02:32;;;;;;;3.80;2.20;;;30.60;45.90;;;;;;5093599;28;20534;-76
2023/09/04 11:05:02;;;;;;;6.22;2.20;;;30.60;44.70;;;;;;5093407;28;20498;-77
2023/09/04 11:07:34;;;;;;;4.60;2.30;;;30.70;44.80;;;;;;5093438;28;20070;-76
2023/09/04 11:10:16;;;;;;;6.60;3.42;;;30.70;46.30;;;;;;5097416;28;20028;-77
2023/09/04 11:12:44;;;;;;;5.00;2.10;;;30.80;44.80;;;;;;5094585;28;20122;-76
2023/09/04 11:15:12;;;;;;;3.88;2.15;;;30.80;45.90;;;;;;5094033;28;20040;-76
2023/09/04 11:17:42;;;;;;;4.80;2.40;;;30.80;45.80;;;;;;5093628;28;20066;-77
2023/09/04 11:20:10;;;;;;;7.68;2.45;;;30.80;45.70;;;;;;5093296;28;20144;-75
2023/09/04 11:22:35;;;;;;;4.13;2.15;;;30.90;45.60;;;;;;5074601;28;20403;-77
2023/09/04 11:25:01;;;;;;;5.03;2.10;;;31.00;45.60;;;;;;5093027;28;20047;-78
2023/09/04 11:27:30;;;;;;;5.50;2.20;;;31.10;45.70;;;;;;5092917;28;20479;-76
2023/09/04 11:30:01;;;;;;;6.63;2.53;;;31.10;44.60;;;;;;5093077;28;20051;-78
2023/09/04 11:32:27;;;;;;;6.18;2.20;;;31.20;45.30;;;;;;5074612;28;20032;-76
2023/09/04 11:34:52;;;;;;;5.45;2.33;;;31.30;44.80;;;;;;5092751;28;20503;-77
2023/09/04 11:37:18;;;;;;;8.30;2.50;;;31.40;45.10;;;;;;5092641;28;20036;-77
2023/09/04 11:39:58;;;;;;;6.65;3.22;;;31.40;44.60;;;;;;5092535;28;20040;-75
2023/09/04 11:42:25;;;;;;;5.43;2.25;;;31.40;44.70;;;;;;5092441;28;20058;-76
2023/09/04 11:44:51;;;;;;;5.90;2.40;;;31.30;44.10;;;;;;5092546;28;20036;-77
2023/09/04 11:47:21;;;;;;;3.72;2.00;;;31.30;43.40;;;;;;5091824;28;20042;-77
2023/09/04 11:49:47;;;;;;;3.30;1.80;;;31.40;43.40;;;;;;5074467;28;20033;-76
2023/09/04 11:52:14;;;;;;;4.65;1.98;;;31.30;43.20;;;;;;5092548;28;20032;-75
2023/09/04 11:54:41;;;;;;;6.13;2.25;;;31.40;43.50;;;;;;5092607;28;20036;-77
2023/09/04 11:57:09;;;;;;;5.55;2.00;;;31.40;42.70;;;;;;5074035;28;20032;-76
2023/09/04 11:59:36;;;;;;;4.35;1.90;;;31.50;42.10;;;;;;5092480;28;20444;-75
2023/09/04 12:02:03;;;;;;;5.07;2.40;;;31.50;41.60;;;;;;5074295;28;20075;-76
2023/09/04 12:04:32;;;;;;;3.78;2.05;;;31.50;41.20;;;;;;5076172;28;20048;-75
2023/09/04 12:07:07;;;;;;;6.75;2.10;;;31.60;41.20;;;;;;5078131;28;20052;-75
2023/09/04 12:09:36;;;;;;;5.22;2.15;;;31.70;40.80;;;;;;5074529;28;20122;-76
2023/09/04 12:12:03;;;;;;;4.95;2.00;;;31.80;41.30;;;;;;5092475;28;20430;-76
2023/09/04 12:14:29;;;;;;;3.22;1.77;;;31.80;40.60;;;;;;5092632;28;20396;-76
2023/09/04 12:16:55;;;;;;;3.85;1.83;;;31.90;40.90;;;;;;5074759;28;20032;-75
2023/09/04 12:19:24;;;;;;;3.08;1.63;;;31.90;40.70;;;;;;5092584;28;20059;-76
2023/09/04 12:21:50;;;;;;;7.53;1.70;;;31.90;40.40;;;;;;5092842;28;20032;-76
2023/09/04 12:24:17;;;;;;;6.47;2.22;;;32.00;40.10;;;;;;5093273;28;20036;-77
2023/09/04 12:26:43;;;;;;;4.85;2.00;;;32.00;40.10;;;;;;5092925;28;20025;-77
2023/09/04 12:29:10;;;;;;;6.10;2.00;;;32.00;39.70;;;;;;5092689;28;20098;-76
2023/09/04 12:31:38;;;;;;;5.68;1.92;;;32.00;39.80;;;;;;5092456;28;20036;-75
2023/09/04 12:34:04;;;;;;;3.83;2.20;;;31.90;39.60;;;;;;5092703;28;20036;-77
2023/09/04 12:36:32;;;;;;;4.45;1.92;;;31.80;40.10;;;;;;5092924;28;20085;-76
2023/09/04 12:38:58;;;;;;;4.60;1.95;;;31.80;39.90;;;;;;5074536;28;20438;-77
2023/09/04 12:41:23;;;;;;;6.40;1.90;;;31.80;40.00;;;;;;5092466;28;20028;-76
2023/09/04 12:43:49;;;;;;;5.38;2.13;;;31.80;40.30;;;;;;5092342;28;20069;-76
2023/09/04 12:46:15;;;;;;;4.97;1.80;;;31.90;40.20;;;;;;5092267;28;20035;-77